createdAt,value
2018-04-01T00:00:32.862Z,2.60
2018-04-01T00:01:33.225Z,2.54
2018-04-01T00:02:32.790Z,2.51
2018-04-01T00:03:33.661Z,2.52
2018-04-01T00:04:32.732Z,2.58
2018-04-01T00:05:32.754Z,2.49
2018-04-01T00:06:33.692Z,2.59
2018-04-01T00:07:32.639Z,2.62
2018-04-01T00:08:33.161Z,2.58
2018-04-01T00:09:32.632Z,2.62
2018-04-01T00:10:32.543Z,2.65
2018-04-01T00:11:33.158Z,2.69
2018-04-01T00:12:32.494Z,2.59
2018-04-01T00:13:33.166Z,2.63
2018-04-01T00:14:32.463Z,2.70
2018-04-01T00:15:33.161Z,2.67
2018-04-01T00:16:32.371Z,2.60
2018-04-01T00:17:32.381Z,2.69
2018-04-01T00:18:32.742Z,2.65
2018-04-01T00:19:32.264Z,2.65
2018-04-01T00:20:33.178Z,2.66
2018-04-01T00:21:32.202Z,2.59
2018-04-01T00:22:32.177Z,2.62
2018-04-01T00:23:32.229Z,2.44
2018-04-01T00:24:32.116Z,2.42
2018-04-01T00:25:32.670Z,2.52
2018-04-01T00:26:32.057Z,2.45
2018-04-01T00:27:32.660Z,2.52
2018-04-01T00:28:32.038Z,2.47
2018-04-01T00:29:32.659Z,2.45
2018-04-01T00:30:31.938Z,2.49
2018-04-01T00:31:32.214Z,2.49
2018-04-01T00:32:31.859Z,2.49
2018-04-01T00:33:32.667Z,2.52
2018-04-01T00:34:31.802Z,2.49
2018-04-01T00:35:32.662Z,2.58
2018-04-01T00:36:31.791Z,2.62
2018-04-01T00:37:32.216Z,2.59
2018-04-01T00:38:31.714Z,2.47
2018-04-01T00:39:31.661Z,2.52
2018-04-01T00:40:31.615Z,2.52
2018-04-01T00:41:32.159Z,2.54
2018-04-01T00:42:31.592Z,2.48
2018-04-01T00:43:32.161Z,2.55
2018-04-01T00:44:31.546Z,2.54
2018-04-01T00:45:32.163Z,2.49
2018-04-01T00:46:31.429Z,2.52
2018-04-01T00:47:32.173Z,2.47
2018-04-01T00:48:31.364Z,2.44
2018-04-01T00:49:31.732Z,2.48
2018-04-01T00:50:31.350Z,2.45
2018-04-01T00:51:32.163Z,2.55
2018-04-01T00:52:31.242Z,2.49
2018-04-01T00:53:32.172Z,2.55
2018-04-01T00:54:31.190Z,2.49
2018-04-01T00:55:31.231Z,2.47
2018-04-01T00:56:31.121Z,2.49
2018-04-01T00:57:31.095Z,2.40
2018-04-01T00:58:31.683Z,2.41
2018-04-01T00:59:31.034Z,2.40
2018-04-01T01:00:31.249Z,2.41
2018-04-01T01:01:30.963Z,2.44
2018-04-01T01:02:31.665Z,2.38
2018-04-01T01:03:30.899Z,2.33
2018-04-01T01:04:31.676Z,2.34
2018-04-01T01:05:30.895Z,2.31
2018-04-01T01:06:31.664Z,2.40
2018-04-01T01:07:30.832Z,2.38
2018-04-01T01:08:31.662Z,2.41
2018-04-01T01:09:30.713Z,2.38
2018-04-01T01:10:30.725Z,2.29
2018-04-01T01:11:30.719Z,2.30
2018-04-01T01:12:30.615Z,2.33
2018-04-01T01:13:31.165Z,2.33
2018-04-01T01:14:30.562Z,2.33
2018-04-01T01:15:30.715Z,2.34
2018-04-01T01:16:31.166Z,2.29
2018-04-01T01:17:30.505Z,2.41
2018-04-01T01:18:31.164Z,2.31
2018-04-01T01:19:30.452Z,2.31
2018-04-01T01:20:30.726Z,2.29
2018-04-01T01:21:30.384Z,2.33
2018-04-01T01:22:31.164Z,2.22
2018-04-01T01:23:30.275Z,2.33
2018-04-01T01:24:31.172Z,2.26
2018-04-01T01:25:30.241Z,2.34
2018-04-01T01:26:30.723Z,2.26
2018-04-01T01:27:30.160Z,2.30
2018-04-01T01:28:30.665Z,2.31
2018-04-01T01:29:30.083Z,2.31
2018-04-01T01:30:30.228Z,2.34
2018-04-01T01:31:30.071Z,2.29
2018-04-01T01:32:30.045Z,2.34
2018-04-01T01:33:30.670Z,2.31
2018-04-01T01:34:29.925Z,2.23
2018-04-01T01:35:30.663Z,2.22
2018-04-01T01:36:29.867Z,2.26
2018-04-01T01:37:30.238Z,2.29
2018-04-01T01:38:29.805Z,2.24
2018-04-01T01:39:30.661Z,2.24
2018-04-01T01:40:29.747Z,2.30
2018-04-01T01:41:30.668Z,2.30
2018-04-01T01:42:29.737Z,2.27
2018-04-01T01:43:30.171Z,2.31
2018-04-01T01:44:29.614Z,2.30
2018-04-01T01:45:30.167Z,2.31
2018-04-01T01:46:29.555Z,2.36
2018-04-01T01:47:29.725Z,2.30
2018-04-01T01:48:29.493Z,2.38
2018-04-01T01:49:29.471Z,2.33
2018-04-01T01:50:30.230Z,2.31
2018-04-01T01:51:29.401Z,2.23
2018-04-01T01:52:29.717Z,2.27
2018-04-01T01:53:29.386Z,2.33
2018-04-01T01:54:30.170Z,2.30
2018-04-01T01:55:29.279Z,2.30
2018-04-01T01:56:29.728Z,2.30
2018-04-01T01:57:29.212Z,2.30
2018-04-01T01:58:30.170Z,2.29
2018-04-01T01:59:29.208Z,2.38
2018-04-01T02:00:29.669Z,2.36
2018-04-01T02:01:29.091Z,2.31
2018-04-01T02:02:29.675Z,2.33
2018-04-01T02:03:29.028Z,2.31
2018-04-01T02:04:29.234Z,2.36
2018-04-01T02:05:28.965Z,2.33
2018-04-01T02:06:28.936Z,2.29
2018-04-01T02:07:29.224Z,2.29
2018-04-01T02:08:28.868Z,2.29
2018-04-01T02:09:29.667Z,2.30
2018-04-01T02:10:28.844Z,2.26
2018-04-01T02:11:29.667Z,2.40
2018-04-01T02:12:28.791Z,2.24
2018-04-01T02:13:29.662Z,2.24
2018-04-01T02:14:28.678Z,2.24
2018-04-01T02:15:29.161Z,2.23
2018-04-01T02:16:28.622Z,2.27
2018-04-01T02:17:28.721Z,2.29
2018-04-01T02:18:28.554Z,2.26
2018-04-01T02:19:28.737Z,2.23
2018-04-01T02:20:28.489Z,2.27
2018-04-01T02:21:28.738Z,2.31
2018-04-01T02:22:28.440Z,2.27
2018-04-01T02:23:28.449Z,2.24
2018-04-01T02:24:29.222Z,2.29
2018-04-01T02:25:28.334Z,2.29
2018-04-01T02:26:29.176Z,2.24
2018-04-01T02:27:28.273Z,2.27
2018-04-01T02:28:28.737Z,2.30
2018-04-01T02:29:28.209Z,2.26
2018-04-01T02:30:29.170Z,2.26
2018-04-01T02:31:28.200Z,2.24
2018-04-01T02:32:28.118Z,2.27
2018-04-01T02:33:28.224Z,2.29
2018-04-01T02:34:28.067Z,2.27
2018-04-01T02:35:28.677Z,2.31
2018-04-01T02:36:27.990Z,2.36
2018-04-01T02:37:28.666Z,2.34
2018-04-01T02:38:27.988Z,2.29
2018-04-01T02:39:28.672Z,2.33
2018-04-01T02:40:27.881Z,2.30
2018-04-01T02:41:27.840Z,2.27
2018-04-01T02:42:28.675Z,2.30
2018-04-01T02:43:27.820Z,2.33
2018-04-01T02:44:28.241Z,2.30
2018-04-01T02:45:27.713Z,2.31
2018-04-01T02:46:28.667Z,2.38
2018-04-01T02:47:27.647Z,2.24
2018-04-01T02:48:27.742Z,2.24
2018-04-01T02:49:27.584Z,2.29
2018-04-01T02:50:28.167Z,2.24
2018-04-01T02:51:27.523Z,2.26
2018-04-01T02:52:28.168Z,2.31
2018-04-01T02:53:27.512Z,2.23
2018-04-01T02:54:28.176Z,2.29
2018-04-01T02:55:27.397Z,2.23
2018-04-01T02:56:28.174Z,2.22
2018-04-01T02:57:27.392Z,2.16
2018-04-01T02:58:27.305Z,2.22
2018-04-01T02:59:27.270Z,2.11
2018-04-01T03:00:27.726Z,2.22
2018-04-01T03:01:27.252Z,2.15
2018-04-01T03:02:28.176Z,2.24
2018-04-01T03:03:27.147Z,2.22
2018-04-01T03:04:27.675Z,2.24
2018-04-01T03:05:27.086Z,2.22
2018-04-01T03:06:27.230Z,2.26
2018-04-01T03:07:27.017Z,2.23
2018-04-01T03:08:27.229Z,2.24
2018-04-01T03:09:26.971Z,2.26
2018-04-01T03:10:26.969Z,2.29
2018-04-01T03:11:27.680Z,2.27
2018-04-01T03:12:26.866Z,2.26
2018-04-01T03:13:27.240Z,2.24
2018-04-01T03:14:26.803Z,2.24
2018-04-01T03:15:27.676Z,2.26
2018-04-01T03:16:26.744Z,2.27
2018-04-01T03:17:27.672Z,2.24
2018-04-01T03:18:26.721Z,2.27
2018-04-01T03:19:27.174Z,2.24
2018-04-01T03:20:26.665Z,2.24
2018-04-01T03:21:26.729Z,2.20
2018-04-01T03:22:26.546Z,2.22
2018-04-01T03:23:27.169Z,2.22
2018-04-01T03:24:26.541Z,2.18
2018-04-01T03:25:26.463Z,2.11
2018-04-01T03:26:27.172Z,2.15
2018-04-01T03:27:26.731Z,2.12
2018-04-01T03:28:27.178Z,2.22
2018-04-01T03:29:26.339Z,2.18
2018-04-01T03:30:27.167Z,2.24
2018-04-01T03:31:26.318Z,2.20
2018-04-01T03:32:27.170Z,2.22
2018-04-01T03:33:26.231Z,2.15
2018-04-01T03:34:27.177Z,2.26
2018-04-01T03:35:26.190Z,2.29
2018-04-01T03:36:26.673Z,2.24
2018-04-01T03:37:26.087Z,2.27
2018-04-01T03:38:26.669Z,2.22
2018-04-01T03:39:26.029Z,2.24
2018-04-01T03:40:26.242Z,2.27
2018-04-01T03:41:25.950Z,2.24
2018-04-01T03:42:25.925Z,2.24
2018-04-01T03:43:26.677Z,2.23
2018-04-01T03:44:25.863Z,2.26
2018-04-01T03:45:26.230Z,2.26
2018-04-01T03:46:25.803Z,2.29
2018-04-01T03:47:26.670Z,2.27
2018-04-01T03:48:25.737Z,2.20
2018-04-01T03:49:26.673Z,2.24
2018-04-01T03:50:25.713Z,2.23
2018-04-01T03:51:25.714Z,2.23
2018-04-01T03:52:25.664Z,2.23
2018-04-01T03:53:26.178Z,2.22
2018-04-01T03:54:25.603Z,2.26
2018-04-01T03:55:26.172Z,2.20
2018-04-01T03:56:25.491Z,2.23
2018-04-01T03:57:26.173Z,2.18
2018-04-01T03:58:25.425Z,2.13
2018-04-01T03:59:25.444Z,2.26
2018-04-01T04:00:25.782Z,2.22
2018-04-01T04:01:25.329Z,2.22
2018-04-01T04:02:26.170Z,2.24
2018-04-01T04:03:25.271Z,2.26
2018-04-01T04:04:26.168Z,2.27
2018-04-01T04:05:25.252Z,2.24
2018-04-01T04:06:26.170Z,2.27
2018-04-01T04:07:25.144Z,2.23
2018-04-01T04:08:25.670Z,2.27
2018-04-01T04:09:25.083Z,2.22
2018-04-01T04:10:25.103Z,2.22
2018-04-01T04:11:25.669Z,2.18
2018-04-01T04:12:25.037Z,2.24
2018-04-01T04:13:25.671Z,2.24
2018-04-01T04:14:24.932Z,2.23
2018-04-01T04:15:25.674Z,2.24
2018-04-01T04:16:24.863Z,2.26
2018-04-01T04:17:24.897Z,2.26
2018-04-01T04:18:25.670Z,2.11
2018-04-01T04:19:24.770Z,2.06
2018-04-01T04:20:25.670Z,2.09
2018-04-01T04:21:24.720Z,2.16
2018-04-01T04:22:24.739Z,2.20
2018-04-01T04:23:24.694Z,2.18
2018-04-01T04:24:25.173Z,2.22
2018-04-01T04:25:24.586Z,2.09
2018-04-01T04:26:25.172Z,2.11
2018-04-01T04:27:24.516Z,2.12
2018-04-01T04:28:24.724Z,2.20
2018-04-01T04:29:24.456Z,2.13
2018-04-01T04:30:25.192Z,2.23
2018-04-01T04:31:24.444Z,2.24
2018-04-01T04:32:25.173Z,2.23
2018-04-01T04:33:24.329Z,2.24
2018-04-01T04:34:24.297Z,2.22
2018-04-01T04:35:25.170Z,2.20
2018-04-01T04:36:24.297Z,2.22
2018-04-01T04:37:25.177Z,2.23
2018-04-01T04:38:24.176Z,2.12
2018-04-01T04:39:24.672Z,2.13
2018-04-01T04:40:24.104Z,2.13
2018-04-01T04:41:24.230Z,2.09
2018-04-01T04:42:24.108Z,2.12
2018-04-01T04:43:24.677Z,2.13
2018-04-01T04:44:24.032Z,2.11
2018-04-01T04:45:24.677Z,2.08
2018-04-01T04:46:23.936Z,2.11
2018-04-01T04:47:24.238Z,2.13
2018-04-01T04:48:23.853Z,2.11
2018-04-01T04:49:24.671Z,2.22
2018-04-01T04:50:23.796Z,2.15
2018-04-01T04:51:23.761Z,2.23
2018-04-01T04:52:24.239Z,2.24
2018-04-01T04:53:23.701Z,2.23
2018-04-01T04:54:24.186Z,2.24
2018-04-01T04:55:23.634Z,2.23
2018-04-01T04:56:23.627Z,2.22
2018-04-01T04:57:23.739Z,2.29
2018-04-01T04:58:23.595Z,2.26
2018-04-01T04:59:23.738Z,2.26
2018-04-01T05:00:23.479Z,2.22
2018-04-01T05:01:23.729Z,2.23
2018-04-01T05:02:23.477Z,2.11
2018-04-01T05:03:24.185Z,2.16
2018-04-01T05:04:23.353Z,2.15
2018-04-01T05:05:23.325Z,2.12
2018-04-01T05:06:24.221Z,2.23
2018-04-01T05:07:23.310Z,2.15
2018-04-01T05:08:23.316Z,2.23
2018-04-01T05:09:24.185Z,2.20
2018-04-01T05:10:23.176Z,2.23
2018-04-01T05:11:23.231Z,2.11
2018-04-01T05:12:23.105Z,2.15
2018-04-01T05:13:23.675Z,2.27
2018-04-01T05:14:23.040Z,2.23
2018-04-01T05:15:23.674Z,2.15
2018-04-01T05:16:23.028Z,2.11
2018-04-01T05:17:23.676Z,2.08
2018-04-01T05:18:22.970Z,2.13
2018-04-01T05:19:23.674Z,2.22
2018-04-01T05:20:22.852Z,2.23
2018-04-01T05:21:23.676Z,2.24
2018-04-01T05:22:22.845Z,2.24
2018-04-01T05:23:23.673Z,2.24
2018-04-01T05:24:22.725Z,2.23
2018-04-01T05:25:22.696Z,2.23
2018-04-01T05:26:23.183Z,2.27
2018-04-01T05:27:22.674Z,2.24
2018-04-01T05:28:23.177Z,2.23
2018-04-01T05:29:22.563Z,2.24
2018-04-01T05:30:23.169Z,2.26
2018-04-01T05:31:22.548Z,2.13
2018-04-01T05:32:23.170Z,2.22
2018-04-01T05:33:22.444Z,2.29
2018-04-01T05:34:23.174Z,2.23
2018-04-01T05:35:22.378Z,2.26
2018-04-01T05:36:22.733Z,2.29
2018-04-01T05:37:22.338Z,2.29
2018-04-01T05:38:23.171Z,2.26
2018-04-01T05:39:22.248Z,2.29
2018-04-01T05:40:22.731Z,2.26
2018-04-01T05:41:22.189Z,2.30
2018-04-01T05:42:22.673Z,2.31
2018-04-01T05:43:22.123Z,2.24
2018-04-01T05:44:22.682Z,2.29
2018-04-01T05:45:22.125Z,2.31
2018-04-01T05:46:22.670Z,2.30
2018-04-01T05:47:22.004Z,2.31
2018-04-01T05:48:22.671Z,2.38
2018-04-01T05:49:21.937Z,2.38
2018-04-01T05:50:22.234Z,2.33
2018-04-01T05:51:21.872Z,2.29
2018-04-01T05:52:22.674Z,2.33
2018-04-01T05:53:21.822Z,2.31
2018-04-01T05:54:22.234Z,2.36
2018-04-01T05:55:21.883Z,2.36
2018-04-01T05:56:22.677Z,2.34
2018-04-01T05:57:21.706Z,2.30
2018-04-01T05:58:21.739Z,2.40
2018-04-01T05:59:21.664Z,2.40
2018-04-01T06:00:21.593Z,2.41
2018-04-01T06:01:24.178Z,2.33
2018-04-01T06:02:21.585Z,2.34
2018-04-01T06:03:22.169Z,2.34
2018-04-01T06:04:21.514Z,2.38
2018-04-01T06:05:21.440Z,2.31
2018-04-01T06:06:22.180Z,2.41
2018-04-01T06:07:21.422Z,2.38
2018-04-01T06:08:21.740Z,2.31
2018-04-01T06:09:21.315Z,2.41
2018-04-01T06:10:21.334Z,2.42
2018-04-01T06:11:22.171Z,2.42
2018-04-01T06:12:21.214Z,2.34
2018-04-01T06:13:21.733Z,2.36
2018-04-01T06:14:21.150Z,2.45
2018-04-01T06:15:21.674Z,2.38
2018-04-01T06:16:21.093Z,2.45
2018-04-01T06:17:21.105Z,2.40
2018-04-01T06:18:21.673Z,2.42
2018-04-01T06:19:20.994Z,2.44
2018-04-01T06:20:21.668Z,2.42
2018-04-01T06:21:20.992Z,2.42
2018-04-01T06:22:21.672Z,2.41
2018-04-01T06:23:20.916Z,2.40
2018-04-01T06:24:21.707Z,2.44
2018-04-01T06:25:20.809Z,2.47
2018-04-01T06:26:21.671Z,2.45
2018-04-01T06:27:20.797Z,2.52
2018-04-01T06:28:21.677Z,2.49
2018-04-01T06:29:20.689Z,2.45
2018-04-01T06:30:20.729Z,2.55
2018-04-01T06:31:20.616Z,2.54
2018-04-01T06:32:20.738Z,2.54
2018-04-01T06:33:20.560Z,2.49
2018-04-01T06:34:20.530Z,2.59
2018-04-01T06:35:20.497Z,2.49
2018-04-01T06:36:21.175Z,2.58
2018-04-01T06:37:20.494Z,2.49
2018-04-01T06:38:21.173Z,2.51
2018-04-01T06:39:20.552Z,2.55
2018-04-01T06:40:21.170Z,2.49
2018-04-01T06:41:20.312Z,2.60
2018-04-01T06:42:20.734Z,2.52
2018-04-01T06:43:20.290Z,2.54
2018-04-01T06:44:21.177Z,2.49
2018-04-01T06:45:20.187Z,2.51
2018-04-01T06:46:20.223Z,2.58
2018-04-01T06:47:20.124Z,2.59
2018-04-01T06:48:20.246Z,2.51
2018-04-01T06:49:20.061Z,2.54
2018-04-01T06:50:20.683Z,2.65
2018-04-01T06:51:19.999Z,2.58
2018-04-01T06:52:20.090Z,2.62
2018-04-01T06:53:20.401Z,2.69
2018-04-01T06:54:19.901Z,2.62
2018-04-01T06:55:20.259Z,2.62
2018-04-01T06:56:19.840Z,2.66
2018-04-01T06:57:20.676Z,2.67
2018-04-01T06:58:19.783Z,2.72
2018-04-01T06:59:20.676Z,2.62
2018-04-01T07:00:19.767Z,2.69
2018-04-01T07:01:23.139Z,2.70
2018-04-01T07:02:26.364Z,2.62
2018-04-01T07:03:21.220Z,2.67
2018-04-01T07:04:20.084Z,2.67
2018-04-01T07:05:19.791Z,2.76
2018-04-01T07:06:22.205Z,2.70
2018-04-01T07:07:19.513Z,2.83
2018-04-01T07:08:20.197Z,2.83
2018-04-01T07:09:19.536Z,2.81
2018-04-01T07:10:20.080Z,2.73
2018-04-01T07:11:22.776Z,2.81
2018-04-01T07:12:22.226Z,2.78
2018-04-01T07:13:19.380Z,2.81
2018-04-01T07:14:23.205Z,2.78
2018-04-01T07:15:20.082Z,2.91
2018-04-01T07:16:20.206Z,2.85
2018-04-01T07:17:19.253Z,2.84
2018-04-01T07:18:19.685Z,2.93
2018-04-01T07:19:20.094Z,2.95
2018-04-01T07:20:19.289Z,2.93
2018-04-01T07:21:19.131Z,2.99
2018-04-01T07:22:19.741Z,2.88
2018-04-01T07:23:19.027Z,2.87
2018-04-01T07:24:19.736Z,2.91
2018-04-01T07:25:18.982Z,2.87
2018-04-01T07:26:19.143Z,2.83
2018-04-01T07:27:19.350Z,2.85
2018-04-01T07:28:19.583Z,2.80
2018-04-01T07:29:19.754Z,2.84
2018-04-01T07:30:18.833Z,2.96
2018-04-01T07:31:19.694Z,2.88
2018-04-01T07:32:18.746Z,2.93
2018-04-01T07:33:19.243Z,2.96
2018-04-01T07:34:18.672Z,3.03
2018-04-01T07:35:19.181Z,2.95
2018-04-01T07:36:18.726Z,2.93
2018-04-01T07:37:19.186Z,2.96
2018-04-01T07:38:18.631Z,2.96
2018-04-01T07:39:19.181Z,3.02
2018-04-01T07:40:18.489Z,2.98
2018-04-01T07:41:19.212Z,2.98
2018-04-01T07:42:18.484Z,2.93
2018-04-01T07:43:18.461Z,2.98
2018-04-01T07:44:19.176Z,2.93
2018-04-01T07:45:18.332Z,2.91
2018-04-01T07:46:19.208Z,2.98
2018-04-01T07:47:18.312Z,3.01
2018-04-01T07:48:19.177Z,2.96
2018-04-01T07:49:18.258Z,2.91
2018-04-01T07:50:18.678Z,2.91
2018-04-01T07:51:18.147Z,3.03
2018-04-01T07:52:18.718Z,2.91
2018-04-01T07:53:18.086Z,2.96
2018-04-01T07:54:18.246Z,2.96
2018-04-01T07:55:18.023Z,3.02
2018-04-01T07:56:18.260Z,3.01
2018-04-01T07:57:17.959Z,2.99
2018-04-01T07:59:50.187Z,2.98
2018-04-01T08:00:49.956Z,2.99
2018-04-01T08:01:49.917Z,2.95
2018-04-01T08:02:50.633Z,3.08
2018-04-01T08:03:49.869Z,3.09
2018-04-01T08:04:49.787Z,3.11
2018-04-01T08:05:50.630Z,3.13
2018-04-01T08:06:49.768Z,3.20
2018-04-01T08:07:50.629Z,3.16
2018-04-01T08:08:49.664Z,3.17
2018-04-01T08:09:50.632Z,3.20
2018-04-01T08:10:49.602Z,3.26
2018-04-01T08:11:49.686Z,3.30
2018-04-01T08:12:49.540Z,3.27
2018-04-01T08:13:50.131Z,3.23
2018-04-01T08:14:49.491Z,3.21
2018-04-01T08:15:49.696Z,3.23
2018-04-01T08:16:49.420Z,3.19
2018-04-01T08:17:49.402Z,3.27
2018-04-01T08:18:50.138Z,3.19
2018-04-01T08:19:49.333Z,3.17
2018-04-01T08:20:49.710Z,3.17
2018-04-01T08:21:49.343Z,3.20
2018-04-01T08:22:49.695Z,3.20
2018-04-01T08:23:49.206Z,3.27
2018-04-01T08:24:49.688Z,3.27
2018-04-01T08:25:49.148Z,3.27
2018-04-01T08:26:49.633Z,3.32
2018-04-01T08:27:49.083Z,3.29
2018-04-01T08:28:49.190Z,3.39
2018-04-01T08:29:49.070Z,3.40
2018-04-01T08:30:49.180Z,3.43
2018-04-01T08:31:48.961Z,3.40
2018-04-01T08:32:49.633Z,3.45
2018-04-01T08:33:48.904Z,3.43
2018-04-01T08:34:49.634Z,3.37
2018-04-01T08:35:48.892Z,3.45
2018-04-01T08:36:49.634Z,3.48
2018-04-01T08:37:48.793Z,3.40
2018-04-01T08:38:49.639Z,3.53
2018-04-01T08:39:48.788Z,3.54
2018-04-01T08:40:49.634Z,3.63
2018-04-01T08:41:48.662Z,3.58
2018-04-01T08:42:49.139Z,3.58
2018-04-01T08:43:48.610Z,3.61
2018-04-01T08:44:48.693Z,3.67
2018-04-01T08:45:48.540Z,3.72
2018-04-01T08:46:49.141Z,3.64
2018-04-01T08:47:48.549Z,3.71
2018-04-01T08:48:49.139Z,3.74
2018-04-01T08:49:48.420Z,3.76
2018-04-01T08:50:49.134Z,3.76
2018-04-01T08:51:48.370Z,3.75
2018-04-01T08:52:48.696Z,3.81
2018-04-01T08:53:49.192Z,3.78
2018-04-01T08:54:48.291Z,3.75
2018-04-01T08:55:49.138Z,3.76
2018-04-01T08:56:48.214Z,3.72
2018-04-01T08:57:48.694Z,3.71
2018-04-01T08:58:48.158Z,3.69
2018-04-01T08:59:48.632Z,3.66
2018-04-01T09:00:48.096Z,3.71
2018-04-01T09:01:48.660Z,3.71
2018-04-01T09:02:48.102Z,3.74
2018-04-01T09:03:48.632Z,3.71
2018-04-01T09:04:47.977Z,3.74
2018-04-01T09:05:48.639Z,3.72
2018-04-01T09:06:47.922Z,3.72
2018-04-01T09:07:48.193Z,3.71
2018-04-01T09:08:47.928Z,3.74
2018-04-01T09:09:47.841Z,3.74
2018-04-01T09:10:48.632Z,3.69
2018-04-01T09:11:47.771Z,3.69
2018-04-01T09:12:48.633Z,3.81
2018-04-01T09:13:47.783Z,3.75
2018-04-01T09:14:48.656Z,3.81
2018-04-01T09:15:47.656Z,3.82
2018-04-01T09:16:48.139Z,3.86
2018-04-01T09:17:47.593Z,3.79
2018-04-01T09:18:47.700Z,3.82
2018-04-01T09:19:47.543Z,3.84
2018-04-01T09:20:48.136Z,3.82
2018-04-01T09:21:47.474Z,3.81
2018-04-01T09:22:48.133Z,3.82
2018-04-01T09:23:47.470Z,3.89
2018-04-01T09:24:48.137Z,3.75
2018-04-01T09:25:47.356Z,3.76
2018-04-01T09:26:47.325Z,3.74
2018-04-01T09:27:47.697Z,3.72
2018-04-01T09:28:47.269Z,3.74
2018-04-01T09:29:48.150Z,3.74
2018-04-01T09:30:47.215Z,3.76
2018-04-01T09:31:48.135Z,3.64
2018-04-01T09:32:48.137Z,3.71
2018-04-01T09:33:47.664Z,3.64
2018-04-01T09:34:47.086Z,3.64
2018-04-01T09:35:47.635Z,3.69
2018-04-01T09:36:47.037Z,3.67
2018-04-01T09:37:47.198Z,3.69
2018-04-01T09:38:47.041Z,3.76
2018-04-01T09:39:47.637Z,3.71
2018-04-01T09:40:46.916Z,3.72
2018-04-01T09:41:47.636Z,3.76
2018-04-01T09:42:46.898Z,3.81
2018-04-01T09:43:47.637Z,3.75
2018-04-01T09:44:46.787Z,3.81
2018-04-01T09:45:47.637Z,3.78
2018-04-01T09:46:46.735Z,3.84
2018-04-01T09:47:47.194Z,3.74
2018-04-01T09:48:46.672Z,3.81
2018-04-01T09:49:47.680Z,3.85
2018-04-01T09:50:46.611Z,3.79
2018-04-01T09:51:47.142Z,3.85
2018-04-01T09:52:46.599Z,3.78
2018-04-01T09:53:47.136Z,3.82
2018-04-01T09:54:46.540Z,3.79
2018-04-01T09:55:47.138Z,3.84
2018-04-01T09:56:46.480Z,3.85
2018-04-01T09:57:46.685Z,3.84
2018-04-01T09:58:46.510Z,3.82
2018-04-01T09:59:46.692Z,3.82
2018-04-01T10:00:46.314Z,3.81
2018-04-01T10:01:46.344Z,3.84
2018-04-01T10:02:47.165Z,3.81
2018-04-01T10:03:46.269Z,3.82
2018-04-01T10:04:46.196Z,3.97
2018-04-01T10:05:46.681Z,3.89
2018-04-01T10:06:46.135Z,3.85
2018-04-01T10:07:47.600Z,3.97
2018-04-01T10:08:46.132Z,4.12
2018-04-01T10:09:46.102Z,4.02
2018-04-01T10:10:46.020Z,4.04
2018-04-01T10:11:46.655Z,3.93
2018-04-01T10:12:46.007Z,3.93
2018-04-01T10:13:47.544Z,3.92
2018-04-01T10:14:45.950Z,3.93
2018-04-01T10:15:46.649Z,4.03
2018-04-01T10:16:45.851Z,3.92
2018-04-01T10:17:46.640Z,3.90
2018-04-01T10:18:45.825Z,3.93
2018-04-01T10:19:45.757Z,3.99
2018-04-01T10:20:45.730Z,3.96
2018-04-01T10:21:46.195Z,3.99
2018-04-01T10:22:45.665Z,3.92
2018-04-01T10:23:46.141Z,3.96
2018-04-01T10:24:46.155Z,4.00
2018-04-01T10:25:46.143Z,3.99
2018-04-01T10:26:45.603Z,3.97
2018-04-01T10:27:46.139Z,4.04
2018-04-01T10:28:45.486Z,4.04
2018-04-01T10:29:46.142Z,4.00
2018-04-01T10:30:45.428Z,4.00
2018-04-01T10:31:45.696Z,4.00
2018-04-01T10:32:45.373Z,4.08
2018-04-01T10:33:46.142Z,4.08
2018-04-01T10:34:45.310Z,4.07
2018-04-01T10:35:45.279Z,4.04
2018-04-01T10:36:45.707Z,4.04
2018-04-01T10:37:46.138Z,3.99
2018-04-01T10:38:46.141Z,4.03
2018-04-01T10:39:45.158Z,4.04
2018-04-01T10:40:45.642Z,3.99
2018-04-01T10:41:45.171Z,4.10
2018-04-01T10:42:45.640Z,3.97
2018-04-01T10:43:45.049Z,4.10
2018-04-01T10:44:45.648Z,4.04
2018-04-01T10:45:45.031Z,4.04
2018-04-01T10:46:45.646Z,4.11
2018-04-01T10:47:44.931Z,4.00
2018-04-01T10:48:45.642Z,4.08
2018-04-01T10:49:44.868Z,4.03
2018-04-01T10:50:45.708Z,3.94
2018-04-01T10:51:44.809Z,3.90
2018-04-01T10:52:45.641Z,4.03
2018-04-01T10:53:44.805Z,3.99
2018-04-01T10:54:45.199Z,3.85
2018-04-01T10:55:44.696Z,3.89
2018-04-01T10:56:45.645Z,3.96
2018-04-01T10:57:44.695Z,3.84
2018-04-01T10:58:44.699Z,3.82
2018-04-01T10:59:44.572Z,3.78
2018-04-01T11:00:45.142Z,3.84
2018-04-01T11:01:44.584Z,3.94
2018-04-01T11:02:45.142Z,3.96
2018-04-01T11:03:44.462Z,3.96
2018-04-01T11:04:44.428Z,3.97
2018-04-01T11:05:45.147Z,4.03
2018-04-01T11:06:44.415Z,4.08
2018-04-01T11:07:45.143Z,4.04
2018-04-01T11:08:44.310Z,4.08
2018-04-01T11:09:44.280Z,4.07
2018-04-01T11:10:45.142Z,3.99
2018-04-01T11:11:44.277Z,4.03
2018-04-01T11:12:44.697Z,4.03
2018-04-01T11:13:44.159Z,4.15
2018-04-01T11:14:44.642Z,4.07
2018-04-01T11:15:44.107Z,4.08
2018-04-01T11:16:44.206Z,4.15
2018-04-01T11:17:44.044Z,4.14
2018-04-01T11:18:44.201Z,4.14
2018-04-01T11:19:43.987Z,4.07
2018-04-01T11:20:44.649Z,4.10
2018-04-01T11:21:43.977Z,4.03
2018-04-01T11:22:44.651Z,4.10
2018-04-01T11:23:43.924Z,4.15
2018-04-01T11:24:44.645Z,4.11
2018-04-01T11:25:43.815Z,4.10
2018-04-01T11:26:44.643Z,4.04
2018-04-01T11:27:43.760Z,4.10
2018-04-01T11:28:44.209Z,4.11
2018-04-01T11:29:43.691Z,4.08
2018-04-01T11:30:44.767Z,4.00
2018-04-01T11:31:43.635Z,4.10
2018-04-01T11:32:44.146Z,4.03
2018-04-01T11:33:43.629Z,4.00
2018-04-01T11:34:43.712Z,4.02
2018-04-01T11:35:43.514Z,3.92
2018-04-01T11:36:44.149Z,3.99
2018-04-01T11:37:43.466Z,3.94
2018-04-01T11:38:43.703Z,3.94
2018-04-01T11:39:43.400Z,4.02
2018-04-01T11:40:44.156Z,4.08
2018-04-01T11:41:43.342Z,4.04
2018-04-01T11:42:44.220Z,4.04
2018-04-01T11:43:43.329Z,4.08
2018-04-01T11:44:43.277Z,3.99
2018-04-01T11:45:44.146Z,4.07
2018-04-01T11:46:43.196Z,4.07
2018-04-01T11:47:43.749Z,4.07
2018-04-01T11:48:43.138Z,4.04
2018-04-01T11:49:43.647Z,4.04
2018-04-01T11:50:43.081Z,4.00
2018-04-01T11:51:43.646Z,4.08
2018-04-01T11:52:43.139Z,4.02
2018-04-01T11:53:43.647Z,4.04
2018-04-01T11:54:42.963Z,4.00
2018-04-01T11:55:43.646Z,4.08
2018-04-01T11:56:42.971Z,4.02
2018-04-01T11:57:43.202Z,4.12
2018-04-01T11:58:42.897Z,4.12
2018-04-01T11:59:43.646Z,4.08
2018-04-01T12:00:42.784Z,4.15
2018-04-01T12:01:43.211Z,4.10
2018-04-01T12:02:42.805Z,4.11
2018-04-01T12:03:43.646Z,4.03
2018-04-01T12:04:42.667Z,4.08
2018-04-01T12:05:43.143Z,4.04
2018-04-01T12:06:42.713Z,4.08
2018-04-01T12:07:43.154Z,4.18
2018-04-01T12:08:42.574Z,4.12
2018-04-01T12:09:42.519Z,4.15
2018-04-01T12:10:42.536Z,4.15
2018-04-01T12:11:43.154Z,4.17
2018-04-01T12:12:42.430Z,4.18
2018-04-01T12:13:43.154Z,4.30
2018-04-01T12:14:42.369Z,4.33
2018-04-01T12:15:42.720Z,4.28
2018-04-01T12:16:42.315Z,4.32
2018-04-01T12:17:43.148Z,4.30
2018-04-01T12:18:42.322Z,4.28
2018-04-01T12:19:43.150Z,4.42
2018-04-01T12:20:42.724Z,4.39
2018-04-01T12:21:42.166Z,4.32
2018-04-01T12:22:42.208Z,4.36
2018-04-01T12:23:42.152Z,4.33
2018-04-01T12:24:42.675Z,4.21
2018-04-01T12:25:42.054Z,4.30
2018-04-01T12:26:42.650Z,4.11
2018-04-01T12:27:42.042Z,4.12
2018-04-01T12:28:42.646Z,4.02
2018-04-01T12:29:41.933Z,4.12
2018-04-01T12:30:42.653Z,4.07
2018-04-01T12:31:41.884Z,4.11
2018-04-01T12:32:42.205Z,4.15
2018-04-01T12:33:41.818Z,4.02
2018-04-01T12:34:44.660Z,4.03
2018-04-01T12:35:41.770Z,4.17
2018-04-01T12:36:41.730Z,4.11
2018-04-01T12:37:42.238Z,4.10
2018-04-01T12:38:41.670Z,4.08
2018-04-01T12:39:42.148Z,4.22
2018-04-01T12:40:41.614Z,4.20
2018-04-01T12:41:42.157Z,4.28
2018-04-01T12:42:41.611Z,4.32
2018-04-01T12:43:42.160Z,4.38
2018-04-01T12:44:41.499Z,4.40
2018-04-01T12:45:41.845Z,4.53
2018-04-01T12:46:41.485Z,4.48
2018-04-01T12:47:42.152Z,4.53
2018-04-01T12:48:41.392Z,4.42
2018-04-01T12:49:41.706Z,4.42
2018-04-01T12:50:41.323Z,4.29
2018-04-01T12:51:42.151Z,4.29
2018-04-01T12:52:41.322Z,4.38
2018-04-01T12:53:41.235Z,4.36
2018-04-01T12:54:41.207Z,4.47
2018-04-01T12:55:42.156Z,4.47
2018-04-01T12:56:41.148Z,4.50
2018-04-01T12:57:41.208Z,4.46
2018-04-01T12:58:41.091Z,4.51
2018-04-01T12:59:41.654Z,4.48
2018-04-01T13:00:41.107Z,4.47
2018-04-01T13:01:41.652Z,4.47
2018-04-01T13:02:40.979Z,4.28
2018-04-01T13:03:41.215Z,4.33
2018-04-01T13:04:40.918Z,4.26
2018-04-01T13:05:41.309Z,4.26
2018-04-01T13:06:40.860Z,4.28
2018-04-01T13:07:41.659Z,4.28
2018-04-01T13:08:40.806Z,4.30
2018-04-01T13:09:40.835Z,4.33
2018-04-01T13:10:40.790Z,4.32
2018-04-01T13:11:40.864Z,4.40
2018-04-01T13:12:41.663Z,4.39
2018-04-01T13:13:40.701Z,4.38
2018-04-01T13:14:41.156Z,4.36
2018-04-01T13:15:40.600Z,4.30
2018-04-01T13:16:41.159Z,4.28
2018-04-01T13:17:40.579Z,4.32
2018-04-01T13:18:41.155Z,4.33
2018-04-01T13:19:40.478Z,4.29